Time;durP1;ratioP1;P1;durP2;ratioP2;P2;SDS_P1;SDS_P2;PMS_P1;PMS_P2;Temp;Humidity;BMP_temperature;BMP_pressure;BME280_temperature;BME280_humidity;BME280_pressure;Samples;Min_cycle;Max_cycle;Signal;HPM_P1;HPM_P2
2022/08/21 00:00:53;;;;;;;11.23;2.90;;;;;;;15.74;82.17;100251.97;4978778;28;20385;-84
2022/08/21 00:03:19;;;;;;;8.50;2.03;;;;;;;15.75;81.92;100250.97;4982466;28;20030;-83
2022/08/21 00:05:49;;;;;;;9.75;2.53;;;;;;;15.78;81.88;100255.94;4996852;28;20042;-83
2022/08/21 00:08:17;;;;;;;10.00;2.28;;;;;;;15.79;81.88;100262.91;5000556;28;20034;-85
2022/08/21 00:10:44;;;;;;;15.70;2.60;;;;;;;15.79;81.88;100262.91;4985292;28;20027;-84
2022/08/21 00:13:10;;;;;;;14.48;2.17;;;;;;;15.81;81.69;100258.22;4998134;28;20037;-83
2022/08/21 00:15:38;;;;;;;13.35;2.60;;;;;;;15.81;81.75;100258.22;4966382;28;20033;-83
2022/08/21 00:18:06;;;;;;;6.85;2.00;;;;;;;15.78;81.63;100263.09;5017317;28;20046;-83
2022/08/21 00:20:33;;;;;;;13.85;2.58;;;;;;;15.73;81.80;100261.81;4976213;28;20118;-83
2022/08/21 00:23:00;;;;;;;13.38;2.30;;;;;;;15.70;81.75;100253.34;5011645;28;20049;-83
2022/08/21 00:25:26;;;;;;;13.63;2.40;;;;;;;15.58;82.03;100248.47;4998138;28;20058;-82
2022/08/21 00:27:53;;;;;;;12.50;2.17;;;;;;;15.52;81.90;100245.69;4995384;28;20089;-83
2022/08/21 00:30:21;;;;;;;13.45;2.38;;;;;;;15.48;82.07;100242.59;5016930;28;20058;-82
2022/08/21 00:32:47;;;;;;;17.15;2.15;;;;;;;15.37;82.14;100236.69;5010845;28;20034;-83
2022/08/21 00:35:16;;;;;;;17.63;2.80;;;;;;;15.31;82.05;100234.75;4974208;28;20034;-82
2022/08/21 00:37:42;;;;;;;11.05;2.08;;;;;;;15.22;82.21;100236.66;5003985;28;20031;-83
2022/08/21 00:40:14;;;;;;;12.98;2.35;;;;;;;15.19;81.92;100246.84;4996626;28;20121;-83
2022/08/21 00:42:41;;;;;;;11.52;2.22;;;;;;;15.13;82.01;100251.03;4996525;28;20109;-82
2022/08/21 00:45:08;;;;;;;13.38;2.05;;;;;;;15.06;82.03;100256.28;5006872;28;20038;-81
2022/08/21 00:47:34;;;;;;;13.98;2.70;;;;;;;14.95;82.21;100251.34;5022286;28;20117;-82
2022/08/21 00:49:59;;;;;;;13.10;2.17;;;;;;;14.79;82.43;100255.81;4975751;28;20121;-83
2022/08/21 00:52:29;;;;;;;14.75;2.42;;;;;;;14.68;82.94;100250.84;4994293;28;20500;-82
2022/08/21 00:54:58;;;;;;;18.42;2.92;;;;;;;14.56;83.01;100253.06;5009201;28;20057;-82
2022/08/21 00:57:30;;;;;;;13.77;2.30;;;;;;;14.37;83.14;100245.38;5002910;28;20034;-84
2022/08/21 00:59:58;;;;;;;15.75;2.10;;;;;;;14.22;83.08;100265.72;4966017;28;20049;-81
2022/08/21 01:02:25;;;;;;;17.25;2.90;;;;;;;14.13;83.41;100270.22;4998423;28;20035;-80
2022/08/21 01:04:51;;;;;;;15.73;2.55;;;;;;;14.11;82.93;100275.72;4978945;28;20054;-81
2022/08/21 01:07:17;;;;;;;16.95;2.92;;;;;;;14.12;82.61;100274.75;4981302;28;20531;-82
2022/08/21 01:09:46;;;;;;;14.95;2.80;;;;;;;14.15;82.07;100268.25;4992780;28;20034;-83
2022/08/21 01:12:12;;;;;;;13.20;2.45;;;;;;;14.17;81.87;100271.56;4990620;28;20047;-81
2022/08/21 01:14:40;;;;;;;19.77;3.40;;;;;;;14.17;81.46;100279.53;4989837;28;20030;-82
2022/08/21 01:17:06;;;;;;;15.40;2.53;;;;;;;14.18;81.06;100281.19;5006625;28;20053;-82
2022/08/21 01:19:32;;;;;;;18.30;2.28;;;;;;;14.18;80.64;100275.88;5005828;28;20058;-83
2022/08/21 01:21:59;;;;;;;14.00;2.60;;;;;;;14.18;80.41;100273.22;5005021;28;20830;-81
2022/08/21 01:24:25;;;;;;;19.05;2.85;;;;;;;14.13;80.35;100268.41;5000568;28;20041;-82
2022/08/21 01:26:52;;;;;;;22.98;3.50;;;;;;;14.09;79.99;100271.59;5000953;28;20052;-82
2022/08/21 01:29:37;;;;;;;12.65;1.95;;;;;;;14.06;79.83;100266.63;4996299;28;20039;-82
2022/08/21 01:32:09;;;;;;;30.83;3.15;;;;;;;14.10;79.94;100262.59;5026229;28;20044;-82
2022/08/21 01:34:37;;;;;;;14.23;1.92;;;;;;;14.15;79.50;100268.25;4979808;28;20031;-83
2022/08/21 01:37:04;;;;;;;22.08;2.75;;;;;;;14.18;79.15;100262.56;5006900;28;20057;-83
2022/08/21 01:39:30;;;;;;;16.65;1.95;;;;;;;14.23;78.94;100262.06;4960667;28;20038;-83
2022/08/21 01:41:56;;;;;;;16.70;3.33;;;;;;;14.26;78.47;100273.19;4991028;28;20039;-84
2022/08/21 01:44:23;;;;;;;11.65;2.00;;;;;;;14.25;78.30;100274.16;4996204;28;20038;-83
2022/08/21 01:46:50;;;;;;;18.70;2.80;;;;;;;14.29;77.87;100273.81;4979476;28;20022;-79
2022/08/21 01:49:16;;;;;;;14.32;2.05;;;;;;;14.30;77.77;100278.16;4997448;28;20038;-79
2022/08/21 01:51:43;;;;;;;12.65;2.20;;;;;;;14.30;77.48;100272.84;5005670;28;20374;-81
2022/08/21 01:54:09;;;;;;;12.40;2.05;;;;;;;14.30;77.41;100275.50;5002073;28;20039;-83
2022/08/21 01:56:41;;;;;;;13.98;2.67;;;;;;;14.31;76.98;100274.47;4963201;28;20046;-83
2022/08/21 01:59:07;;;;;;;17.00;2.03;;;;;;;14.27;76.79;100272.16;5010648;28;20061;-83
2022/08/21 02:01:33;;;;;;;19.20;2.58;;;;;;;14.21;76.72;100262.22;4995315;28;20034;-84
2022/08/21 02:03:59;;;;;;;14.40;2.33;;;;;;;14.09;76.70;100263.63;5006800;28;20042;-83
2022/08/21 02:06:26;;;;;;;13.55;3.10;;;;;;;13.96;76.88;100254.38;4994990;28;20050;-84
2022/08/21 02:08:52;;;;;;;17.98;2.78;;;;;;;13.89;77.09;100258.69;4980513;28;20026;-83
2022/08/21 02:11:18;;;;;;;17.75;2.80;;;;;;;13.80;76.90;100259.72;4984392;28;20045;-84
2022/08/21 02:13:44;;;;;;;12.60;2.20;;;;;;;13.70;77.01;100255.41;4996280;28;20488;-85
2022/08/21 02:16:11;;;;;;;19.42;3.17;;;;;;;13.58;77.33;100262.09;5007891;28;20042;-84
2022/08/21 02:18:37;;;;;;;16.60;1.70;;;;;;;13.48;77.38;100262.22;4993633;28;20038;-84
2022/08/21 02:21:04;;;;;;;15.65;2.78;;;;;;;13.40;77.67;100257.75;4983124;28;20400;-81
2022/08/21 02:23:30;;;;;;;10.93;1.98;;;;;;;13.35;77.93;100258.28;5007950;28;20109;-83
2022/08/21 02:26:00;;;;;;;12.43;1.95;;;;;;;13.36;78.03;100253.78;5011473;28;20117;-82
2022/08/21 02:28:27;;;;;;;16.45;2.58;;;;;;;13.37;78.13;100250.13;5012060;28;20038;-83
2022/08/21 02:30:54;;;;;;;11.07;1.83;;;;;;;13.39;77.93;100248.16;4991414;28;20050;-82
2022/08/21 02:33:20;;;;;;;18.00;2.08;;;;;;;13.43;77.72;100244.16;5008013;28;20132;-83
2022/08/21 02:35:47;;;;;;;16.63;2.15;;;;;;;13.42;77.52;100239.84;4964396;28;20030;-82
2022/08/21 02:38:16;;;;;;;14.85;2.00;;;;;;;13.45;77.69;100243.97;4991064;28;20053;-83
2022/08/21 02:40:45;;;;;;;11.05;2.05;;;;;;;13.46;77.19;100242.97;5011482;28;20061;-82
2022/08/21 02:43:11;;;;;;;12.88;2.17;;;;;;;13.35;77.57;100241.50;5021335;28;20113;-82
2022/08/21 02:45:38;;;;;;;17.10;2.00;;;;;;;13.25;77.56;100229.25;5007408;28;20108;-82
2022/08/21 02:48:07;;;;;;;11.30;2.22;;;;;;;13.21;77.63;100224.44;4995893;28;20042;-82
2022/08/21 02:50:42;;;;;;;17.90;1.80;;;;;;;13.20;77.53;100228.09;4995050;28;20036;-82
2022/08/21 02:53:11;;;;;;;13.77;1.83;;;;;;;13.17;77.75;100229.25;4994442;28;20046;-83
2022/08/21 02:55:37;;;;;;;11.77;1.70;;;;;;;13.21;77.71;100229.75;5008865;28;20150;-82
2022/08/21 02:58:06;;;;;;;8.73;1.45;;;;;;;13.25;77.40;100229.25;4985204;28;20164;-81
2022/08/21 03:00:35;;;;;;;12.50;2.05;;;;;;;13.25;76.97;100229.25;5007729;28;20034;-82
2022/08/21 03:03:01;;;;;;;10.52;1.88;;;;;;;13.25;76.76;100231.09;4978881;28;20408;-82
2022/08/21 03:05:31;;;;;;;8.35;1.45;;;;;;;13.25;76.49;100234.53;4981333;28;20053;-82
2022/08/21 03:07:58;;;;;;;7.93;1.40;;;;;;;13.21;76.44;100233.22;4950408;28;20042;-82
2022/08/21 03:10:25;;;;;;;9.25;1.60;;;;;;;13.19;76.72;100226.41;5011081;28;20034;-82
2022/08/21 03:12:51;;;;;;;17.70;2.95;;;;;;;13.22;76.03;100234.06;4979688;28;20030;-82
2022/08/21 03:15:20;;;;;;;10.57;1.85;;;;;;;13.22;75.86;100226.91;4978461;28;20488;-81
2022/08/21 03:17:46;;;;;;;15.02;2.70;;;;;;;13.20;75.83;100220.13;4998209;28;20061;-82
2022/08/21 03:20:14;;;;;;;15.60;2.65;;;;;;;13.12;76.00;100219.13;4986556;28;20101;-82
2022/08/21 03:22:40;;;;;;;12.07;2.30;;;;;;;13.08;76.04;100223.13;4944251;28;20113;-81
2022/08/21 03:25:07;;;;;;;11.75;1.48;;;;;;;13.06;75.91;100227.75;4983965;28;20041;-81
2022/08/21 03:27:33;;;;;;;11.80;1.92;;;;;;;13.03;75.94;100244.00;5017703;28;20414;-82
2022/08/21 03:30:00;;;;;;;10.07;1.90;;;;;;;12.98;76.09;100243.69;4989172;28;20036;-83
2022/08/21 03:32:25;;;;;;;8.45;1.42;;;;;;;12.92;75.89;100250.47;4994437;28;20049;-83
2022/08/21 03:34:51;;;;;;;12.82;2.10;;;;;;;12.85;76.29;100255.59;5003349;28;20126;-82
2022/08/21 03:37:17;;;;;;;9.35;1.77;;;;;;;12.77;76.31;100242.34;4997809;28;20038;-82
2022/08/21 03:39:44;;;;;;;11.85;1.83;;;;;;;12.74;76.02;100255.94;5017163;28;20041;-82
2022/08/21 03:42:11;;;;;;;8.68;1.65;;;;;;;12.71;76.03;100265.03;5024320;28;20507;-81
2022/08/21 03:44:39;;;;;;;15.32;2.20;;;;;;;12.69;76.20;100252.94;5000137;28;20069;-82
2022/08/21 03:47:05;;;;;;;9.90;1.83;;;;;;;12.65;76.03;100261.22;5000227;28;20045;-81
2022/08/21 03:49:31;;;;;;;7.75;1.40;;;;;;;12.58;76.02;100270.78;5002859;28;20050;-81
2022/08/21 03:51:57;;;;;;;7.20;1.25;;;;;;;12.54;76.38;100266.81;4984944;28;20608;-81
2022/08/21 03:54:22;;;;;;;7.60;1.20;;;;;;;12.49;76.06;100269.97;4991795;28;20091;-82
2022/08/21 03:56:49;;;;;;;12.60;1.73;;;;;;;12.47;76.52;100271.94;4985377;28;20091;-82
2022/08/21 03:59:16;;;;;;;11.20;1.80;;;;;;;12.45;76.33;100268.63;5007258;28;20042;-81
2022/08/21 04:01:54;;;;;;;11.18;1.40;;;;;;;12.47;75.98;100265.81;4969588;28;20038;-81
2022/08/21 04:04:20;;;;;;;9.85;1.55;;;;;;;12.44;76.28;100277.56;4999413;28;20083;-81
2022/08/21 04:06:46;;;;;;;8.57;1.50;;;;;;;12.45;76.26;100267.78;4996631;28;20042;-80
2022/08/21 04:09:12;;;;;;;16.05;1.63;;;;;;;12.47;76.05;100263.16;4986289;28;20043;-82
2022/08/21 04:11:38;;;;;;;9.93;1.50;;;;;;;12.47;75.74;100268.47;4996233;28;20030;-82
2022/08/21 04:14:04;;;;;;;11.23;1.73;;;;;;;12.46;75.59;100262.31;4979767;28;20079;-81
2022/08/21 04:16:30;;;;;;;12.25;1.70;;;;;;;12.47;75.73;100266.63;4994180;28;20076;-81
2022/08/21 04:18:56;;;;;;;8.00;1.33;;;;;;;12.44;76.00;100266.13;4987558;28;20456;-81
2022/08/21 04:21:23;;;;;;;13.82;2.15;;;;;;;12.35;76.15;100270.56;5002031;28;20025;-81
2022/08/21 04:23:49;;;;;;;9.00;1.75;;;;;;;12.28;76.15;100273.03;4990999;28;20530;-81
2022/08/21 04:26:15;;;;;;;5.38;1.48;;;;;;;12.22;76.32;100273.66;4993852;28;20391;-81
2022/08/21 04:28:41;;;;;;;10.75;1.98;;;;;;;12.19;76.22;100277.47;4993315;28;20029;-81
2022/08/21 04:31:08;;;;;;;12.40;1.90;;;;;;;12.18;76.44;100285.56;5007701;28;20030;-81
2022/08/21 04:33:34;;;;;;;11.80;2.00;;;;;;;12.10;76.54;100286.38;5010076;28;20049;-81
2022/08/21 04:36:01;;;;;;;11.45;1.70;;;;;;;12.00;76.79;100282.00;5008320;28;20033;-81
2022/08/21 04:38:27;;;;;;;11.52;1.83;;;;;;;11.93;77.55;100288.09;5003633;28;20160;-81
2022/08/21 04:40:52;;;;;;;9.07;1.38;;;;;;;11.84;77.53;100290.69;4994466;28;20046;-80
2022/08/21 04:43:20;;;;;;;9.82;1.40;;;;;;;11.68;77.72;100294.03;4997162;28;20103;-81
2022/08/21 04:45:47;;;;;;;5.38;1.20;;;;;;;11.41;78.43;100283.44;5011638;28;20053;-80
2022/08/21 04:48:15;;;;;;;5.53;1.65;;;;;;;11.18;79.37;100291.00;5028517;28;20042;-80
2022/08/21 04:50:54;;;;;;;9.13;1.60;;;;;;;10.96;80.16;100295.78;5008164;28;20049;-80
2022/08/21 04:53:31;;;;;;;9.05;1.75;;;;;;;10.81;80.93;100300.78;5016121;28;20037;-81
2022/08/21 04:56:00;;;;;;;7.32;1.42;;;;;;;10.78;81.41;100304.53;4997611;28;20030;-80
2022/08/21 04:58:27;;;;;;;8.15;1.63;;;;;;;10.82;81.38;100301.59;5009546;28;20480;-80
2022/08/21 05:00:59;;;;;;;7.60;1.20;;;;;;;10.90;81.03;100299.88;4999478;28;20034;-81
2022/08/21 05:03:25;;;;;;;7.07;1.13;;;;;;;10.96;80.32;100305.56;5027161;28;20087;-80
2022/08/21 05:05:51;;;;;;;6.88;1.33;;;;;;;11.01;80.32;100293.53;5027694;28;20046;-80
2022/08/21 05:08:21;;;;;;;5.20;1.10;;;;;;;11.07;79.93;100292.06;4981512;28;20049;-81
2022/08/21 05:10:47;;;;;;;11.63;1.83;;;;;;;11.10;79.62;100302.34;5010673;28;20026;-81
2022/08/21 05:13:13;;;;;;;4.30;1.38;;;;;;;11.16;79.33;100295.66;4980068;28;20040;-81
2022/08/21 05:15:40;;;;;;;8.85;1.45;;;;;;;11.24;78.85;100295.72;4991736;28;20037;-80
2022/08/21 05:18:06;;;;;;;6.38;2.17;;;;;;;11.27;78.34;100284.84;5014773;28;20503;-80
2022/08/21 05:20:35;;;;;;;7.70;1.50;;;;;;;11.26;78.46;100283.16;5029089;28;20432;-80
2022/08/21 05:23:10;;;;;;;6.38;1.33;;;;;;;11.28;78.13;100280.34;4999792;28;20096;-81
2022/08/21 05:25:37;;;;;;;8.10;1.20;;;;;;;11.33;78.21;100279.91;5007352;28;20040;-81
2022/08/21 05:28:03;;;;;;;11.00;1.42;;;;;;;11.33;77.85;100282.53;5012355;28;20109;-81
2022/08/21 05:30:28;;;;;;;12.98;1.70;;;;;;;11.39;77.58;100284.56;5008566;28;20088;-81
2022/08/21 05:33:03;;;;;;;5.25;1.50;;;;;;;11.38;77.58;100285.56;4984446;28;20529;-80
2022/08/21 05:35:29;;;;;;;8.18;1.35;;;;;;;11.35;77.70;100292.00;5003087;28;20029;-81
2022/08/21 05:37:55;;;;;;;5.10;1.05;;;;;;;11.35;77.75;100301.75;5015102;28;20048;-81
2022/08/21 05:40:22;;;;;;;12.43;1.60;;;;;;;11.34;77.68;100295.63;5021948;28;20034;-80
2022/08/21 05:42:51;;;;;;;14.73;1.90;;;;;;;11.34;77.17;100300.91;5013738;28;20038;-80
2022/08/21 05:45:17;;;;;;;10.82;1.58;;;;;;;11.38;77.36;100302.28;4995283;28;20477;-80
2022/08/21 05:47:43;;;;;;;4.05;0.85;;;;;;;11.33;76.93;100307.19;4998397;28;20034;-81
2022/08/21 05:50:09;;;;;;;3.72;0.88;;;;;;;11.03;77.14;100312.72;4981799;28;20035;-80
2022/08/21 05:52:35;;;;;;;5.63;1.25;;;;;;;10.87;78.24;100318.69;4997061;28;20033;-80
2022/08/21 05:55:01;;;;;;;4.57;0.90;;;;;;;10.76;79.02;100317.09;5000030;28;20397;-80
2022/08/21 05:57:26;;;;;;;9.85;1.48;;;;;;;10.66;79.16;100318.94;5017220;28;20061;-80
2022/08/21 05:59:52;;;;;;;7.60;1.98;;;;;;;10.61;79.75;100315.91;4973465;28;20038;-80
2022/08/21 06:02:20;;;;;;;9.13;1.38;;;;;;;10.50;80.21;100312.50;4952195;28;20046;-80
2022/08/21 06:04:45;;;;;;;4.80;1.25;;;;;;;10.52;80.44;100321.13;5021687;28;20079;-79
2022/08/21 06:07:12;;;;;;;8.90;1.45;;;;;;;10.58;80.73;100319.69;4999201;28;20045;-80
2022/08/21 06:09:38;;;;;;;6.43;1.38;;;;;;;10.66;80.54;100313.66;5004297;28;20033;-80
2022/08/21 06:12:05;;;;;;;9.20;1.40;;;;;;;10.75;80.34;100310.13;5000164;28;20033;-80
2022/08/21 06:14:31;;;;;;;10.55;1.42;;;;;;;10.85;79.82;100319.78;4996220;28;20025;-79
2022/08/21 06:17:09;;;;;;;5.57;1.00;;;;;;;10.94;79.71;100318.91;4995299;28;20037;-80
2022/08/21 06:19:35;;;;;;;9.45;1.30;;;;;;;10.95;79.29;100320.56;5025615;28;20087;-80
2022/08/21 06:22:01;;;;;;;4.90;1.48;;;;;;;10.97;79.40;100321.28;5004830;28;20042;-79
2022/08/21 06:24:27;;;;;;;6.03;1.02;;;;;;;11.02;79.48;100323.47;4987152;28;20081;-80
2022/08/21 06:26:54;;;;;;;7.03;1.52;;;;;;;11.04;79.33;100317.03;4995912;28;20077;-80
2022/08/21 06:29:21;;;;;;;6.25;1.70;;;;;;;11.02;79.19;100328.75;4991328;28;20034;-80
2022/08/21 06:31:48;;;;;;;6.82;1.65;;;;;;;11.06;79.56;100327.47;5002146;28;20409;-80
2022/08/21 06:34:15;;;;;;;9.75;1.30;;;;;;;11.11;79.78;100321.72;4995040;28;20121;-79
2022/08/21 06:36:41;;;;;;;10.63;1.42;;;;;;;11.23;79.37;100331.09;4989507;28;20034;-80
2022/08/21 06:39:07;;;;;;;10.95;1.60;;;;;;;11.29;79.22;100341.06;4984668;28;20033;-80
2022/08/21 06:41:33;;;;;;;7.45;2.28;;;;;;;11.27;78.94;100332.47;4980956;28;20050;-80
2022/08/21 06:43:58;;;;;;;6.65;1.27;;;;;;;11.26;79.37;100340.56;4979483;28;20038;-80
2022/08/21 06:46:27;;;;;;;6.70;1.23;;;;;;;11.34;79.02;100343.25;4981652;28;20480;-80
2022/08/21 06:48:53;;;;;;;5.05;1.23;;;;;;;11.33;79.23;100346.88;4988672;28;20096;-80
2022/08/21 06:51:19;;;;;;;5.53;0.95;;;;;;;11.34;79.36;100358.31;4996629;28;20068;-80
2022/08/21 06:53:45;;;;;;;12.18;1.95;;;;;;;11.38;79.93;100354.38;4976105;28;20034;-80
2022/08/21 06:56:11;;;;;;;8.05;1.30;;;;;;;11.48;79.71;100359.59;4995187;28;20026;-79
2022/08/21 06:58:37;;;;;;;10.50;1.63;;;;;;;11.49;79.84;100355.94;4983518;28;20041;-80
2022/08/21 07:01:03;;;;;;;11.38;1.70;;;;;;;11.51;80.13;100359.28;4976899;28;20035;-81
2022/08/21 07:03:35;;;;;;;14.50;1.58;;;;;;;11.56;80.23;100357.00;4995174;28;20086;-80
2022/08/21 07:06:01;;;;;;;15.82;2.33;;;;;;;11.62;80.61;100367.00;5011437;28;20096;-81
2022/08/21 07:08:28;;;;;;;14.75;1.60;;;;;;;11.70;80.42;100368.88;4961132;28;20030;-81
2022/08/21 07:10:56;;;;;;;7.80;1.42;;;;;;;11.82;80.53;100366.78;4978035;28;20041;-81
2022/08/21 07:13:23;;;;;;;7.45;1.30;;;;;;;11.97;80.44;100364.41;5016317;28;20041;-80
2022/08/21 07:15:48;;;;;;;13.85;2.20;;;;;;;12.20;80.43;100376.34;4978690;28;20034;-81
2022/08/21 07:18:14;;;;;;;11.80;1.20;;;;;;;12.48;80.47;100374.34;5026184;28;20029;-81
2022/08/21 07:20:41;;;;;;;12.10;1.88;;;;;;;12.82;80.40;100377.94;4998831;28;20041;-80
2022/08/21 07:23:11;;;;;;;9.02;1.80;;;;;;;13.25;80.41;100372.56;4952328;28;20459;-81
2022/08/21 07:25:37;;;;;;;3.55;0.85;;;;;;;13.68;80.20;100373.47;4985178;28;20030;-81
2022/08/21 07:28:03;;;;;;;8.93;1.50;;;;;;;14.07;79.96;100385.19;4958552;28;20038;-81
2022/08/21 07:30:29;;;;;;;8.73;1.45;;;;;;;14.32;79.19;100385.13;5009814;28;20026;-80
2022/08/21 07:32:55;;;;;;;8.05;1.40;;;;;;;14.59;78.82;100394.53;4997360;28;20462;-81
2022/08/21 07:35:22;;;;;;;6.70;1.50;;;;;;;14.92;78.28;100385.63;4984869;28;20032;-81
2022/08/21 07:37:48;;;;;;;9.55;1.88;;;;;;;15.16;77.31;100378.47;4993197;28;20030;-81
2022/08/21 07:40:15;;;;;;;8.52;1.58;;;;;;;15.28;76.67;100386.88;5026850;28;20100;-81
2022/08/21 07:42:42;;;;;;;10.55;1.92;;;;;;;15.34;76.02;100380.00;5003523;28;20057;-81
2022/08/21 07:45:10;;;;;;;11.35;2.22;;;;;;;15.39;75.61;100388.31;4990534;28;20125;-82
2022/08/21 07:47:36;;;;;;;7.20;1.33;;;;;;;15.47;75.17;100384.75;4992331;28;20056;-80
2022/08/21 07:50:02;;;;;;;8.05;1.67;;;;;;;15.50;74.67;100371.91;5005066;28;20452;-81
2022/08/21 07:52:28;;;;;;;14.05;2.28;;;;;;;15.52;74.45;100381.53;4970810;28;20034;-82
2022/08/21 07:54:54;;;;;;;8.95;2.03;;;;;;;15.48;74.46;100376.56;4959964;28;20030;-82
2022/08/21 07:57:20;;;;;;;12.07;2.20;;;;;;;15.47;74.51;100380.25;4981136;28;20105;-81
2022/08/21 07:59:45;;;;;;;7.00;1.60;;;;;;;15.42;74.41;100379.97;4976087;28;20392;-81
2022/08/21 08:02:28;;;;;;;14.20;1.85;;;;;;;15.26;74.70;100378.22;4969551;28;20127;-83
2022/08/21 08:04:58;;;;;;;12.52;1.83;;;;;;;15.21;75.25;100376.09;5005899;28;20038;-81
2022/08/21 08:07:24;;;;;;;8.23;2.00;;;;;;;15.22;75.24;100369.78;4983185;28;20061;-83
2022/08/21 08:09:50;;;;;;;10.60;1.40;;;;;;;15.27;75.26;100373.75;5010153;28;20030;-82
2022/08/21 08:12:16;;;;;;;10.10;1.65;;;;;;;15.22;74.76;100384.94;4993481;28;20033;-81
2022/08/21 08:14:42;;;;;;;9.27;1.73;;;;;;;15.12;73.89;100370.03;5021507;28;20049;-80
2022/08/21 08:17:08;;;;;;;15.38;1.63;;;;;;;15.09;73.20;100372.19;4989434;28;20048;-83
2022/08/21 08:19:34;;;;;;;11.00;1.60;;;;;;;15.13;72.71;100369.00;4985169;28;20499;-84
2022/08/21 08:22:00;;;;;;;8.80;1.10;;;;;;;15.16;72.16;100373.13;5014674;28;20480;-83
2022/08/21 08:24:25;;;;;;;10.75;1.55;;;;;;;15.22;71.69;100371.63;4984647;28;20026;-83
2022/08/21 08:26:51;;;;;;;11.82;1.63;;;;;;;15.23;71.61;100371.44;4997267;28;20535;-83
2022/08/21 08:29:17;;;;;;;12.85;1.80;;;;;;;15.28;71.17;100367.41;5013592;28;20026;-83
2022/08/21 08:31:42;;;;;;;10.38;1.48;;;;;;;15.30;70.74;100360.06;5006125;28;20492;-82
2022/08/21 08:34:08;;;;;;;5.63;1.17;;;;;;;15.34;70.52;100361.38;4968975;28;20041;-84
2022/08/21 08:36:36;;;;;;;12.40;2.03;;;;;;;15.39;70.21;100356.34;4999926;28;20033;-82
2022/08/21 08:39:05;;;;;;;9.52;1.95;;;;;;;15.46;69.75;100351.13;4965017;28;20392;-83
2022/08/21 08:41:32;;;;;;;12.05;1.33;;;;;;;15.45;69.24;100358.28;4995581;28;20042;-82
2022/08/21 08:44:03;;;;;;;12.98;1.60;;;;;;;15.38;68.90;100358.16;4982604;28;20046;-84
2022/08/21 08:46:40;;;;;;;8.57;1.35;;;;;;;15.31;68.52;100362.56;4974967;28;20520;-83
2022/08/21 08:49:29;;;;;;;9.70;1.27;;;;;;;15.28;67.99;100370.06;4995411;28;20065;-83
2022/08/21 08:52:05;;;;;;;7.85;1.27;;;;;;;15.33;67.91;100378.34;5012488;28;20069;-83
2022/08/21 08:54:39;;;;;;;9.10;1.30;;;;;;;15.37;67.62;100369.00;4996179;28;20468;-83
2022/08/21 08:57:13;;;;;;;8.85;1.30;;;;;;;15.40;67.38;100358.00;4998847;28;20038;-83
2022/08/21 08:59:42;;;;;;;6.97;1.50;;;;;;;15.49;67.16;100366.75;4994719;28;20049;-82
2022/08/21 09:02:12;;;;;;;9.68;1.33;;;;;;;15.59;66.59;100379.84;4951461;28;20029;-84
2022/08/21 09:04:38;;;;;;;8.25;1.10;;;;;;;15.65;66.07;100371.13;4981295;28;20120;-84
2022/08/21 09:07:34;;;;;;;7.55;1.10;;;;;;;15.66;64.43;100367.44;4997197;28;20100;-83
2022/08/21 09:10:00;;;;;;;;;;;;;;;15.54;63.72;100369.72;4997306;28;20489;-82
2022/08/21 09:12:50;;;;;;;7.37;1.03;;;;;;;15.55;64.58;100366.03;5003735;28;19920;-83
2022/08/21 09:15:53;;;;;;;7.47;1.08;;;;;;;15.60;62.41;100371.66;4984207;28;20128;-81
2022/08/21 09:18:40;;;;;;;4.85;0.90;;;;;;;15.53;62.40;100372.56;4999439;28;20160;-82
2022/08/21 09:21:20;;;;;;;7.53;1.05;;;;;;;15.57;61.74;100377.34;4982978;28;20507;-81
2022/08/21 09:24:15;;;;;;;10.93;1.15;;;;;;;15.62;61.06;100379.47;4977679;28;20068;-80
2022/08/21 09:26:50;;;;;;;5.72;0.95;;;;;;;15.66;61.94;100375.44;4900923;28;20034;-80
2022/08/21 09:29:20;;;;;;;5.70;0.97;;;;;;;15.59;61.18;100374.50;4991486;28;20109;-80
2022/08/21 09:31:46;;;;;;;4.78;0.65;;;;;;;15.49;61.59;100378.25;4997410;28;20440;-81
2022/08/21 09:34:13;;;;;;;3.13;0.68;;;;;;;15.50;61.50;100373.72;4964478;28;20370;-81
2022/08/21 09:36:45;;;;;;;10.70;1.15;;;;;;;15.51;61.28;100370.09;5030389;28;20033;-81
2022/08/21 09:39:21;;;;;;;7.05;1.02;;;;;;;15.61;61.27;100362.66;4981627;28;20034;-81
2022/08/21 09:41:54;;;;;;;;;;;;;;;15.69;60.64;100358.25;4990326;28;20045;-80
2022/08/21 09:44:28;;;;;;;3.60;0.73;;;;;;;15.94;61.23;100353.53;4997205;28;19961;-82
2022/08/21 09:46:55;;;;;;;4.03;0.77;;;;;;;16.04;60.94;100352.47;5019456;28;20042;-81
2022/08/21 09:49:35;;;;;;;5.30;1.33;;;;;;;16.19;60.40;100353.31;4984565;28;20109;-81
2022/08/21 09:52:03;;;;;;;10.07;0.90;;;;;;;16.22;60.23;100347.59;5017947;28;20037;-80
2022/08/21 09:54:32;;;;;;;7.60;1.08;;;;;;;16.20;59.99;100346.94;4977760;28;20034;-84
2022/08/21 10:00:10;;;;;;;15.95;1.92;;;;;;;16.34;59.50;100337.28;5018739;28;20080;-80
2022/08/21 10:02:36;;;;;;;5.15;0.80;;;;;;;16.41;59.21;100347.22;4974846;28;20092;-81
2022/08/21 10:05:08;;;;;;;7.80;1.15;;;;;;;16.34;59.29;100349.81;4964044;28;20038;-81
2022/08/21 10:07:37;;;;;;;2.42;0.60;;;;;;;16.39;59.43;100341.25;4979554;28;20045;-81
2022/08/21 10:10:15;;;;;;;5.93;0.93;;;;;;;16.46;58.98;100343.00;4963811;28;20037;-81
2022/08/21 10:12:59;;;;;;;4.85;0.80;;;;;;;16.59;58.39;100333.50;4990449;28;20037;-82
2022/08/21 10:15:31;;;;;;;5.55;0.77;;;;;;;16.72;57.38;100340.84;4999660;28;20034;-79
2022/08/21 10:18:16;;;;;;;7.15;0.90;;;;;;;16.57;56.92;100355.03;4963714;28;20080;-80
2022/08/21 10:21:07;;;;;;;6.72;0.80;;;;;;;16.64;56.59;100355.13;4971334;28;20164;-80
2022/08/21 10:24:11;;;;;;;7.53;0.68;;;;;;;16.72;56.59;100359.50;4998267;28;20497;-79
2022/08/21 10:27:07;;;;;;;7.13;1.25;;;;;;;16.80;56.38;100354.03;4977861;28;20034;-81
2022/08/21 10:30:00;;;;;;;4.68;0.80;;;;;;;17.05;56.21;100363.56;4995301;28;20034;-79
2022/08/21 10:32:37;;;;;;;6.03;0.93;;;;;;;17.35;55.29;100358.13;4991218;28;20042;-82
2022/08/21 10:35:19;;;;;;;7.20;1.05;;;;;;;17.58;55.27;100352.56;4967579;28;20046;-81
2022/08/21 10:38:00;;;;;;;11.50;0.95;;;;;;;17.87;54.79;100352.56;4991319;28;20139;-77
2022/08/21 10:40:37;;;;;;;5.88;1.17;;;;;;;18.03;54.33;100355.97;4944753;28;20041;-80
2022/08/21 10:43:27;;;;;;;6.80;0.80;;;;;;;18.18;54.17;100343.34;4992242;28;20396;-79
2022/08/21 10:46:06;;;;;;;7.70;0.80;;;;;;;18.34;53.90;100338.69;4978562;28;20092;-79
2022/08/21 10:48:44;;;;;;;6.05;0.90;;;;;;;18.47;53.78;100337.91;4993861;28;20034;-81
2022/08/21 10:51:18;;;;;;;4.93;1.02;;;;;;;18.55;53.55;100340.44;5027489;28;20042;-82
2022/08/21 10:53:55;;;;;;;6.93;0.90;;;;;;;18.54;53.54;100340.63;4991859;28;20044;-81
2022/08/21 10:56:28;;;;;;;4.70;0.65;;;;;;;18.60;53.17;100339.81;4988182;28;20041;-81
2022/08/21 10:59:09;;;;;;;3.28;0.30;;;;;;;18.67;52.91;100335.31;5007670;28;20088;-80
2022/08/21 11:01:59;;;;;;;8.02;1.23;;;;;;;18.72;52.43;100338.22;5010112;28;20121;-81
2022/08/21 11:04:42;;;;;;;4.93;1.00;;;;;;;18.78;52.24;100341.09;4985771;28;20121;-80
2022/08/21 11:07:37;;;;;;;6.15;1.52;;;;;;;18.81;51.94;100340.69;5004371;28;20066;-81
2022/08/21 11:10:25;;;;;;;2.80;0.90;;;;;;;18.91;52.07;100340.31;4995902;28;20068;-80
2022/08/21 11:13:13;;;;;;;5.25;0.80;;;;;;;18.92;51.44;100336.63;4994244;28;20045;-81
2022/08/21 11:15:56;;;;;;;8.27;0.95;;;;;;;18.96;51.83;100332.50;4984901;28;20424;-81
2022/08/21 11:18:30;;;;;;;6.82;0.82;;;;;;;19.06;51.94;100332.91;4988058;28;20046;-80
2022/08/21 11:21:11;;;;;;;6.07;1.43;;;;;;;19.12;51.28;100328.66;5022217;28;20034;-81
2022/08/21 11:23:43;;;;;;;9.40;1.10;;;;;;;19.15;51.30;100322.03;5010975;28;20044;-81
2022/08/21 11:26:17;;;;;;;5.00;1.13;;;;;;;19.18;50.68;100322.47;4990174;28;20110;-81
2022/08/21 11:28:52;;;;;;;3.88;0.68;;;;;;;19.16;50.43;100324.53;5004023;28;20484;-81
2022/08/21 11:31:24;;;;;;;11.95;1.10;;;;;;;19.16;50.29;100326.41;4982571;28;20431;-80
2022/08/21 11:34:11;;;;;;;3.58;0.60;;;;;;;19.23;50.67;100321.84;5010514;28;20563;-80
2022/08/21 11:37:06;;;;;;;3.35;0.70;;;;;;;19.25;49.75;100325.16;4977967;28;20444;-80